Time;durP1;ratioP1;P1;durP2;ratioP2;P2;SDS_P1;SDS_P2;PMS_P1;PMS_P2;Temp;Humidity;BMP_temperature;BMP_pressure;BME280_temperature;BME280_humidity;BME280_pressure;Samples;Min_cycle;Max_cycle;Signal;HPM_P1;HPM_P2
2023/01/14 00:00:10;;;;;;;6.53;3.13;;;23.60;44.10;;;;;;5040342;27;92899;-59
2023/01/14 00:02:38;;;;;;;3.20;2.90;;;23.50;43.40;;;;;;5049468;27;93231;-58
2023/01/14 00:05:07;;;;;;;4.17;3.00;;;23.50;43.40;;;;;;5049852;27;92943;-58
2023/01/14 00:07:35;;;;;;;4.07;3.37;;;23.40;43.40;;;;;;5033710;27;94219;-57
2023/01/14 00:10:03;;;;;;;4.33;2.97;;;23.30;43.40;;;;;;5048309;27;94242;-59
2023/01/14 00:12:33;;;;;;;6.67;3.50;;;23.20;43.40;;;;;;5044624;27;94268;-58
2023/01/14 00:15:01;;;;;;;4.37;2.53;;;23.10;43.40;;;;;;5041614;27;94072;-58
2023/01/14 00:17:29;;;;;;;4.93;2.90;;;23.10;43.50;;;;;;5040153;27;93946;-58
2023/01/14 00:19:57;;;;;;;3.97;2.43;;;23.00;43.50;;;;;;5044318;27;92163;-58
2023/01/14 00:22:25;;;;;;;5.03;2.67;;;22.90;43.50;;;;;;5038282;27;95009;-58
2023/01/14 00:24:53;;;;;;;6.83;2.50;;;22.90;43.60;;;;;;5040769;27;93737;-58
2023/01/14 00:27:21;;;;;;;2.20;2.00;;;22.80;43.50;;;;;;5049387;27;93766;-58
2023/01/14 00:29:50;;;;;;;5.70;2.80;;;22.70;43.50;;;;;;5059208;27;92134;-61
2023/01/14 00:32:18;;;;;;;5.70;2.33;;;22.70;43.60;;;;;;5040606;27;94199;-61
2023/01/14 00:34:46;;;;;;;2.50;2.30;;;22.60;43.50;;;;;;5050815;27;93839;-60
2023/01/14 00:37:14;;;;;;;3.07;2.00;;;22.60;43.60;;;;;;5060010;27;92185;-60
2023/01/14 00:39:42;;;;;;;3.07;2.10;;;22.50;43.60;;;;;;5043134;27;91371;-58
2023/01/14 00:42:10;;;;;;;3.03;2.30;;;22.50;43.70;;;;;;5044104;27;92047;-58
2023/01/14 00:44:38;;;;;;;2.67;2.20;;;22.40;43.60;;;;;;5059753;27;94081;-59
2023/01/14 00:47:07;;;;;;;4.63;1.80;;;22.40;43.70;;;;;;5056112;27;94100;-60
2023/01/14 00:49:35;;;;;;;3.10;1.93;;;22.30;44.30;;;;;;5052610;27;91972;-58
2023/01/14 00:52:04;;;;;;;3.40;2.03;;;22.20;43.60;;;;;;5038945;27;94113;-58
2023/01/14 00:54:33;;;;;;;2.13;1.60;;;22.20;43.70;;;;;;5043934;27;92780;-59
2023/01/14 00:57:01;;;;;;;3.67;1.97;;;22.20;43.70;;;;;;5041044;27;92082;-58
2023/01/14 00:59:29;;;;;;;4.17;1.63;;;22.10;43.70;;;;;;5040650;27;91883;-58
2023/01/14 01:01:57;;;;;;;2.27;1.77;;;22.10;43.70;;;;;;5039760;27;94133;-59
2023/01/14 01:04:26;;;;;;;4.00;1.73;;;22.10;43.70;;;;;;5039662;27;92370;-60
2023/01/14 01:06:54;;;;;;;5.13;2.23;;;22.00;43.70;;;;;;5039631;27;92170;-60
2023/01/14 01:09:22;;;;;;;3.80;1.53;;;22.00;43.80;;;;;;5039640;27;94211;-60
2023/01/14 01:11:50;;;;;;;2.60;1.83;;;21.90;43.70;;;;;;5038650;28;95311;-60
2023/01/14 01:14:19;;;;;;;4.73;2.17;;;21.90;43.70;;;;;;5039033;27;93894;-60
2023/01/14 01:16:47;;;;;;;3.80;2.40;;;21.90;43.70;;;;;;5039881;27;92024;-60
2023/01/14 01:19:15;;;;;;;7.77;3.23;;;21.90;44.40;;;;;;5038263;27;92009;-60
2023/01/14 01:21:44;;;;;;;11.83;4.30;;;21.80;43.70;;;;;;5039206;28;94152;-60
2023/01/14 01:24:12;;;;;;;11.77;4.87;;;21.80;43.80;;;;;;5043870;27;93898;-58
2023/01/14 01:26:40;;;;;;;12.43;5.40;;;21.80;43.80;;;;;;5060204;27;91959;-59
2023/01/14 01:29:08;;;;;;;12.23;5.53;;;21.80;43.80;;;;;;5060158;27;91415;-59
2023/01/14 01:31:36;;;;;;;10.93;5.80;;;21.80;43.80;;;;;;5059538;27;93340;-59
2023/01/14 01:34:04;;;;;;;13.23;5.87;;;21.70;43.80;;;;;;5057251;27;93071;-59
2023/01/14 01:36:32;;;;;;;10.57;5.37;;;21.70;43.80;;;;;;5062287;27;93065;-59
2023/01/14 01:39:02;;;;;;;9.80;4.63;;;21.70;43.80;;;;;;5080330;27;92031;-60
2023/01/14 01:41:31;;;;;;;10.40;5.07;;;21.60;43.80;;;;;;5065864;27;94036;-59
2023/01/14 01:44:00;;;;;;;11.70;5.63;;;21.70;43.80;;;;;;5059375;27;92949;-59
2023/01/14 01:46:28;;;;;;;11.47;5.80;;;21.60;43.80;;;;;;5059169;27;92042;-59
2023/01/14 01:48:57;;;;;;;10.67;5.50;;;21.60;43.80;;;;;;5059760;27;91986;-59
2023/01/14 01:51:26;;;;;;;9.30;4.23;;;21.60;44.50;;;;;;5059168;27;93190;-58
2023/01/14 01:53:55;;;;;;;6.47;3.87;;;21.50;43.80;;;;;;5074133;27;93839;-59
2023/01/14 01:56:26;;;;;;;7.43;4.63;;;21.50;43.80;;;;;;5059560;27;92082;-60
2023/01/14 01:58:54;;;;;;;7.07;4.53;;;21.50;43.80;;;;;;5059403;27;92063;-59
2023/01/14 02:01:21;;;;;;;10.07;3.93;;;21.50;43.90;;;;;;5058699;27;95085;-59
2023/01/14 02:03:50;;;;;;;11.20;5.30;;;21.50;43.90;;;;;;5059026;27;94775;-58
2023/01/14 02:06:18;;;;;;;8.13;4.03;;;21.50;43.90;;;;;;5060119;27;93372;-59
2023/01/14 02:08:48;;;;;;;8.57;4.50;;;21.50;43.90;;;;;;5059283;27;92021;-58
2023/01/14 02:11:26;;;;;;;11.23;4.70;;;21.40;43.90;;;;;;5058780;27;94342;-58
2023/01/14 02:13:59;;;;;;;11.50;5.40;;;21.40;43.90;;;;;;5058539;27;93872;-60
2023/01/14 02:16:34;;;;;;;10.10;4.97;;;21.40;43.90;;;;;;5059126;27;92052;-59
2023/01/14 02:19:13;;;;;;;9.27;5.27;;;21.40;43.90;;;;;;5058968;27;91419;-59
2023/01/14 02:21:45;;;;;;;12.13;5.70;;;21.40;43.90;;;;;;5058304;27;93336;-59
2023/01/14 02:24:37;;;;;;;10.23;4.67;;;21.30;43.80;;;;;;5058608;27;94086;-59
2023/01/14 02:27:51;;;;;;;10.00;5.43;;;21.30;43.90;;;;;;5058302;27;92967;-59
2023/01/14 02:30:26;;;;;;;12.33;5.27;;;21.30;43.90;;;;;;4974398;28;92138;-59
2023/01/14 02:32:56;;;;;;;6.57;4.13;;;21.30;43.90;;;;;;4972824;28;94256;-59
2023/01/14 02:35:29;;;;;;;10.93;4.97;;;21.30;44.00;;;;;;4997121;28;94050;-58
2023/01/14 02:38:04;;;;;;;11.47;3.93;;;21.20;43.90;;;;;;5039923;27;92146;-59
2023/01/14 02:40:34;;;;;;;11.03;4.73;;;21.20;44.00;;;;;;5038587;28;92077;-59
2023/01/14 02:45:55;;;;;;;9.90;4.23;;;21.20;44.00;;;;;;5057325;27;93946;-59
2023/01/14 02:48:23;;;;;;;8.87;4.43;;;21.20;44.00;;;;;;5043689;27;92076;-59
2023/01/14 02:50:51;;;;;;;12.80;5.90;;;21.20;44.00;;;;;;5058116;27;91868;-59
2023/01/14 02:53:20;;;;;;;10.27;5.17;;;21.10;43.90;;;;;;5055379;27;94238;-59
2023/01/14 02:55:48;;;;;;;9.40;4.90;;;21.10;43.90;;;;;;5055759;27;92693;-59
2023/01/14 02:58:38;;;;;;;6.93;4.97;;;21.10;43.90;;;;;;5043323;27;92013;-59
2023/01/14 03:01:21;;;;;;;9.60;3.90;;;21.10;43.90;;;;;;5032269;27;92493;-60
2023/01/14 03:03:58;;;;;;;7.40;4.43;;;21.10;43.90;;;;;;5061417;27;94233;-59
2023/01/14 03:06:31;;;;;;;9.97;5.30;;;21.10;43.90;;;;;;5060536;27;93769;-59
2023/01/14 03:09:01;;;;;;;11.50;4.90;;;21.10;43.90;;;;;;5060015;27;92236;-59
2023/01/14 03:11:35;;;;;;;12.93;4.77;;;21.10;43.90;;;;;;5061966;27;91341;-59
2023/01/14 03:14:03;;;;;;;7.20;4.10;;;21.10;44.00;;;;;;5050716;27;94208;-59
2023/01/14 03:16:39;;;;;;;11.33;4.73;;;21.00;43.90;;;;;;5042448;27;92736;-58
2023/01/14 03:19:09;;;;;;;10.87;5.13;;;21.00;43.90;;;;;;5051001;27;92967;-59
2023/01/14 03:21:38;;;;;;;6.90;3.97;;;21.00;44.00;;;;;;5061654;27;92100;-59
2023/01/14 03:24:08;;;;;;;8.30;3.90;;;21.00;44.00;;;;;;5042109;27;92981;-59
2023/01/14 03:26:36;;;;;;;6.17;3.90;;;21.00;44.00;;;;;;5059527;27;93733;-59
2023/01/14 03:29:08;;;;;;;8.93;3.63;;;21.00;44.00;;;;;;5061702;27;92103;-59
2023/01/14 03:31:38;;;;;;;8.53;4.03;;;21.00;44.00;;;;;;5056200;27;92149;-59
2023/01/14 03:34:08;;;;;;;8.33;3.77;;;20.90;43.90;;;;;;5041055;27;94207;-59
2023/01/14 03:36:36;;;;;;;6.90;3.93;;;20.90;43.90;;;;;;5052073;27;93934;-59
2023/01/14 03:39:05;;;;;;;8.53;4.33;;;20.90;43.90;;;;;;5046419;27;92370;-59
2023/01/14 03:44:21;;;;;;;10.67;4.70;;;20.90;44.00;;;;;;5040558;28;94254;-59
2023/01/14 03:46:51;;;;;;;7.07;3.93;;;21.00;44.10;;;;;;5040648;27;94625;-59
2023/01/14 03:49:19;;;;;;;8.73;4.30;;;20.90;44.10;;;;;;5040790;27;93176;-58
2023/01/14 03:51:48;;;;;;;7.40;4.43;;;20.80;44.00;;;;;;5056970;27;91864;-60
2023/01/14 03:54:21;;;;;;;9.17;3.70;;;20.80;44.00;;;;;;5041186;27;94199;-59
2023/01/14 03:56:54;;;;;;;8.20;4.70;;;20.80;44.00;;;;;;5047656;27;93997;-58
2023/01/14 03:59:24;;;;;;;6.97;3.53;;;20.80;44.00;;;;;;5053366;27;91773;-59
2023/01/14 04:01:54;;;;;;;13.60;3.97;;;20.80;44.00;;;;;;5060953;27;92193;-59
2023/01/14 04:04:22;;;;;;;8.60;4.07;;;20.80;44.00;;;;;;5060878;27;94146;-59
2023/01/14 04:06:50;;;;;;;4.77;3.63;;;20.80;44.70;;;;;;5048676;27;92790;-58
2023/01/14 04:09:18;;;;;;;7.30;3.23;;;20.80;44.00;;;;;;5056254;27;93045;-59
2023/01/14 04:11:46;;;;;;;5.40;3.03;;;20.80;44.10;;;;;;5047987;27;92144;-58
2023/01/14 04:17:01;;;;;;;7.77;4.03;;;20.70;44.00;;;;;;5051078;27;92779;-58
2023/01/14 04:19:29;;;;;;;8.87;3.83;;;20.70;44.00;;;;;;5040924;28;92024;-59
2023/01/14 04:21:57;;;;;;;10.13;3.67;;;20.70;44.10;;;;;;5041819;27;92123;-59
2023/01/14 04:24:25;;;;;;;7.50;3.27;;;20.70;44.10;;;;;;5039368;27;94284;-58
2023/01/14 04:26:53;;;;;;;7.07;2.40;;;20.70;44.10;;;;;;5057555;27;93772;-59
2023/01/14 04:29:21;;;;;;;7.97;3.07;;;20.70;44.10;;;;;;5044522;27;92106;-59
2023/01/14 04:31:49;;;;;;;5.17;2.93;;;20.70;44.10;;;;;;5041482;27;92102;-59
2023/01/14 04:34:18;;;;;;;7.93;4.93;;;20.70;44.10;;;;;;5039507;28;95037;-58
2023/01/14 04:36:46;;;;;;;5.13;2.37;;;20.70;44.10;;;;;;5050755;27;95008;-59
2023/01/14 04:39:14;;;;;;;4.73;2.63;;;20.70;44.10;;;;;;5060155;27;92135;-58
2023/01/14 04:44:28;;;;;;;6.33;3.50;;;20.60;44.70;;;;;;5043817;27;93809;-58
2023/01/14 04:46:56;;;;;;;7.63;2.37;;;20.60;44.00;;;;;;5039590;27;92934;-59
2023/01/14 04:49:25;;;;;;;4.90;2.90;;;20.60;44.10;;;;;;5040289;28;92104;-59
2023/01/14 04:51:53;;;;;;;4.57;2.50;;;20.60;44.10;;;;;;5057004;27;91399;-58
2023/01/14 04:54:21;;;;;;;7.17;3.03;;;20.60;44.10;;;;;;5058073;27;93385;-59
2023/01/14 04:56:49;;;;;;;7.43;2.77;;;20.60;44.80;;;;;;5045850;27;93772;-59
2023/01/14 04:59:17;;;;;;;5.50;2.53;;;20.60;44.80;;;;;;5039477;27;93001;-59
2023/01/14 05:01:45;;;;;;;4.23;2.30;;;20.50;44.00;;;;;;5056730;27;92036;-59
2023/01/14 05:04:13;;;;;;;5.20;2.27;;;20.50;44.10;;;;;;5059344;27;94229;-58
2023/01/14 05:06:43;;;;;;;4.07;2.20;;;20.50;44.10;;;;;;5058947;27;93869;-59
2023/01/14 05:09:11;;;;;;;9.73;3.60;;;20.50;44.10;;;;;;5060559;27;92183;-59
2023/01/14 05:11:39;;;;;;;9.90;3.30;;;20.50;44.10;;;;;;5058098;27;92100;-59
2023/01/14 05:14:07;;;;;;;8.07;2.23;;;20.50;44.10;;;;;;5049581;27;94152;-58
2023/01/14 05:16:35;;;;;;;5.70;1.80;;;20.50;44.10;;;;;;5049713;27;92839;-58
2023/01/14 05:19:03;;;;;;;3.13;1.87;;;20.50;44.10;;;;;;5060014;27;91990;-59
2023/01/14 05:21:31;;;;;;;3.70;2.60;;;20.50;44.10;;;;;;5043052;27;92049;-59
2023/01/14 05:24:00;;;;;;;5.43;2.43;;;20.40;44.10;;;;;;5037976;27;94160;-59
2023/01/14 05:26:28;;;;;;;5.87;2.73;;;20.40;44.10;;;;;;5038249;27;94933;-58
2023/01/14 05:28:56;;;;;;;4.00;1.73;;;20.40;44.70;;;;;;5039620;27;91910;-59
2023/01/14 05:31:24;;;;;;;2.97;2.07;;;20.40;44.10;;;;;;5041477;27;92139;-59
2023/01/14 05:33:52;;;;;;;5.90;2.20;;;20.40;44.10;;;;;;5048860;27;93279;-59
2023/01/14 05:36:20;;;;;;;9.00;2.47;;;20.40;44.10;;;;;;5046953;27;94104;-58
2023/01/14 05:38:48;;;;;;;2.60;1.43;;;20.40;44.10;;;;;;5046850;27;92029;-59
2023/01/14 05:41:17;;;;;;;3.57;2.27;;;20.40;44.10;;;;;;5039547;27;91458;-58
2023/01/14 05:46:31;;;;;;;3.13;1.60;;;20.40;44.10;;;;;;5048005;27;92762;-59
2023/01/14 05:48:59;;;;;;;4.80;2.20;;;20.30;44.10;;;;;;5038676;27;93161;-58
2023/01/14 05:51:27;;;;;;;3.73;1.80;;;20.30;44.10;;;;;;5047499;27;92042;-59
2023/01/14 05:53:55;;;;;;;4.63;2.00;;;20.30;44.10;;;;;;5058418;27;94430;-58
2023/01/14 05:56:24;;;;;;;4.03;1.97;;;20.30;44.10;;;;;;5053255;27;92839;-58
2023/01/14 05:58:52;;;;;;;4.20;1.93;;;20.30;44.10;;;;;;5039093;27;92066;-59
2023/01/14 06:06:50;;;;;;;4.90;1.97;;;20.30;44.10;;;;;;5042115;27;93534;-59
2023/01/14 06:09:19;;;;;;;1.17;0.90;;;20.30;44.20;;;;;;5039401;27;91975;-58
2023/01/14 06:11:50;;;;;;;2.50;1.37;;;20.30;44.20;;;;;;5038002;27;91954;-58
2023/01/14 06:14:18;;;;;;;2.03;1.30;;;20.30;44.20;;;;;;5044916;27;95200;-59
2023/01/14 06:16:51;;;;;;;3.03;1.53;;;20.30;44.20;;;;;;5056874;27;94814;-58
2023/01/14 06:19:19;;;;;;;1.60;1.10;;;20.30;44.20;;;;;;5059287;27;92181;-58
2023/01/14 06:21:47;;;;;;;2.40;1.43;;;20.30;44.20;;;;;;5057343;27;92056;-59
2023/01/14 06:24:16;;;;;;;2.63;1.27;;;20.30;44.20;;;;;;5058027;27;94139;-58
2023/01/14 06:26:43;;;;;;;4.13;1.80;;;20.30;44.20;;;;;;5044286;27;93923;-59
2023/01/14 06:29:13;;;;;;;2.97;1.47;;;20.30;44.20;;;;;;5039278;28;92098;-59
2023/01/14 06:31:41;;;;;;;1.63;1.23;;;20.20;44.10;;;;;;5052917;27;91184;-58
2023/01/14 06:34:09;;;;;;;3.77;1.50;;;20.20;44.10;;;;;;5043180;27;94059;-59
2023/01/14 06:36:38;;;;;;;3.63;1.80;;;20.20;44.20;;;;;;5043658;27;93675;-58
2023/01/14 06:39:06;;;;;;;4.40;1.77;;;20.20;44.20;;;;;;5047239;27;92987;-59
2023/01/14 06:41:34;;;;;;;2.67;1.00;;;20.20;44.20;;;;;;5062249;27;92111;-59
2023/01/14 06:44:03;;;;;;;3.67;1.73;;;20.20;44.20;;;;;;5060435;27;94110;-60
2023/01/14 06:46:32;;;;;;;2.53;1.23;;;20.20;44.20;;;;;;5051202;27;93953;-59
2023/01/14 06:49:00;;;;;;;4.40;1.60;;;20.20;44.20;;;;;;5057100;27;92068;-60
2023/01/14 06:51:30;;;;;;;2.17;1.17;;;20.10;44.20;;;;;;5060461;27;92064;-59
2023/01/14 06:53:59;;;;;;;2.80;1.33;;;20.10;44.20;;;;;;5055125;27;94077;-60
2023/01/14 06:56:27;;;;;;;2.50;1.00;;;20.10;44.20;;;;;;5042020;27;92726;-60
2023/01/14 06:58:55;;;;;;;1.00;0.90;;;20.10;44.20;;;;;;5041909;27;92135;-59
2023/01/14 07:01:23;;;;;;;3.07;1.17;;;20.10;44.20;;;;;;5051634;27;92034;-59
2023/01/14 07:03:52;;;;;;;2.60;1.30;;;20.10;44.20;;;;;;5059540;27;94967;-59
2023/01/14 07:06:20;;;;;;;3.40;1.10;;;20.10;44.30;;;;;;5042452;27;95002;-60
2023/01/14 07:08:48;;;;;;;2.30;1.00;;;20.10;44.20;;;;;;5041717;27;91915;-59
2023/01/14 07:11:16;;;;;;;1.30;1.20;;;20.10;44.30;;;;;;5042231;27;92130;-59
2023/01/14 07:13:44;;;;;;;1.27;0.73;;;20.10;44.30;;;;;;5041275;28;93210;-60
2023/01/14 07:16:13;;;;;;;2.17;1.23;;;20.10;44.30;;;;;;5050978;27;93837;-59
2023/01/14 07:18:41;;;;;;;1.27;0.97;;;20.00;44.20;;;;;;5061594;27;91937;-60
2023/01/14 07:21:10;;;;;;;1.50;1.03;;;20.10;44.30;;;;;;5060195;27;91306;-59
2023/01/14 07:23:38;;;;;;;0.90;0.80;;;20.00;44.20;;;;;;5040725;27;94089;-60
2023/01/14 07:26:06;;;;;;;3.67;0.90;;;20.00;44.20;;;;;;5048529;27;93810;-60
2023/01/14 07:28:35;;;;;;;2.93;1.13;;;20.00;44.20;;;;;;5061195;27;93031;-60
2023/01/14 07:31:06;;;;;;;1.40;1.00;;;20.00;44.30;;;;;;5043954;27;92216;-60
2023/01/14 07:33:34;;;;;;;1.87;1.13;;;20.00;44.30;;;;;;5051631;27;93083;-60
2023/01/14 07:36:03;;;;;;;2.23;0.97;;;20.00;44.30;;;;;;5059556;27;94247;-60
2023/01/14 07:38:32;;;;;;;7.80;1.87;;;20.00;44.30;;;;;;5059552;27;92201;-60
2023/01/14 07:41:00;;;;;;;5.60;1.13;;;20.00;44.30;;;;;;5052233;27;91898;-60
2023/01/14 07:43:29;;;;;;;1.40;0.93;;;20.00;44.30;;;;;;5043360;27;93946;-60
2023/01/14 07:45:59;;;;;;;1.20;1.00;;;19.90;44.20;;;;;;5059761;27;94073;-60
2023/01/14 07:48:27;;;;;;;2.87;0.70;;;20.00;44.30;;;;;;5061081;27;91978;-60
2023/01/14 07:50:55;;;;;;;1.27;1.00;;;19.90;44.30;;;;;;5059490;27;92086;-60
2023/01/14 07:53:23;;;;;;;3.80;1.03;;;19.90;44.30;;;;;;5057227;27;95163;-60
2023/01/14 07:55:52;;;;;;;0.87;0.70;;;20.00;44.30;;;;;;5041407;27;93354;-60
2023/01/14 07:58:21;;;;;;;2.40;0.83;;;20.00;44.30;;;;;;5056721;27;92204;-60
2023/01/14 08:00:49;;;;;;;2.80;1.03;;;19.90;44.30;;;;;;5059175;27;91927;-60
2023/01/14 08:03:17;;;;;;;2.03;0.70;;;19.90;44.30;;;;;;5040272;27;94177;-61
2023/01/14 08:05:45;;;;;;;1.00;0.77;;;19.90;44.30;;;;;;5052547;27;92820;-60
2023/01/14 08:08:13;;;;;;;2.00;0.83;;;19.90;44.30;;;;;;5044347;27;92074;-60
2023/01/14 08:10:41;;;;;;;2.27;1.07;;;19.90;44.30;;;;;;5042845;27;91471;-60
2023/01/14 08:13:13;;;;;;;0.70;0.70;;;19.90;44.30;;;;;;5041333;27;94108;-59
2023/01/14 08:15:41;;;;;;;0.77;0.60;;;19.80;44.30;;;;;;5048414;27;92945;-60
2023/01/14 08:18:09;;;;;;;1.37;0.70;;;19.80;44.30;;;;;;5060055;27;93090;-60
2023/01/14 08:20:37;;;;;;;4.17;1.30;;;19.90;44.40;;;;;;5058894;27;92146;-60
2023/01/14 08:23:05;;;;;;;4.23;0.90;;;19.80;44.30;;;;;;5058865;27;92913;-60
2023/01/14 08:25:33;;;;;;;1.03;0.67;;;19.80;44.30;;;;;;5041137;27;93979;-60
2023/01/14 08:28:01;;;;;;;1.17;0.80;;;19.80;44.40;;;;;;5040685;27;92013;-60
2023/01/14 08:30:31;;;;;;;1.20;0.63;;;19.80;44.30;;;;;;5041161;27;92050;-60
2023/01/14 08:32:59;;;;;;;3.40;1.20;;;19.80;44.40;;;;;;5040020;28;93180;-60
2023/01/14 08:35:27;;;;;;;0.50;0.50;;;19.80;44.30;;;;;;5040807;27;92925;-60
2023/01/14 08:37:55;;;;;;;3.97;0.87;;;19.80;45.00;;;;;;5039884;27;92151;-60
2023/01/14 08:40:23;;;;;;;0.80;0.80;;;19.80;44.30;;;;;;5041557;27;92629;-60
2023/01/14 08:42:51;;;;;;;3.00;0.90;;;19.80;44.40;;;;;;5039267;28;95192;-59
2023/01/14 08:45:19;;;;;;;0.80;0.80;;;19.70;44.30;;;;;;5045016;27;93810;-60
2023/01/14 08:47:49;;;;;;;2.50;0.80;;;19.70;44.40;;;;;;5060753;27;91966;-60
2023/01/14 08:50:17;;;;;;;1.37;1.13;;;19.70;45.00;;;;;;5060192;27;92133;-60
2023/01/14 08:52:45;;;;;;;1.33;0.70;;;19.70;44.40;;;;;;5059670;27;94187;-60
2023/01/14 08:55:13;;;;;;;1.53;0.80;;;19.70;44.40;;;;;;5059315;27;93675;-60
2023/01/14 08:57:41;;;;;;;1.93;0.90;;;19.70;44.40;;;;;;5059853;27;92136;-60
2023/01/14 09:00:10;;;;;;;1.23;1.13;;;19.70;44.40;;;;;;5058372;27;91377;-60
2023/01/14 09:02:38;;;;;;;1.10;0.80;;;19.70;44.40;;;;;;5051375;27;94130;-60
2023/01/14 09:05:09;;;;;;;0.30;0.30;;;19.70;44.50;;;;;;5039464;27;92766;-60
2023/01/14 09:18:41;;;;;;;0.43;0.40;;;20.20;44.40;;;;;;5060081;27;92049;-60
2023/01/14 09:21:10;;;;;;;2.37;0.73;;;20.30;44.30;;;;;;5059681;27;93501;-60
2023/01/14 09:23:38;;;;;;;2.43;0.90;;;20.40;44.30;;;;;;5039562;27;94234;-60
2023/01/14 09:26:06;;;;;;;1.83;0.67;;;20.40;44.20;;;;;;5039449;27;92737;-60
2023/01/14 09:28:34;;;;;;;1.10;0.60;;;20.50;44.20;;;;;;5039694;27;92188;-60
2023/01/14 09:31:02;;;;;;;0.87;0.80;;;20.50;44.20;;;;;;5039973;27;91987;-61
2023/01/14 09:33:30;;;;;;;3.20;0.70;;;20.60;44.20;;;;;;5038650;28;94051;-59
2023/01/14 09:36:00;;;;;;;0.43;0.43;;;20.60;44.20;;;;;;5038496;27;94997;-60
2023/01/14 09:38:29;;;;;;;0.63;0.63;;;20.60;44.20;;;;;;5054818;27;92218;-61
2023/01/14 09:40:57;;;;;;;0.90;0.90;;;20.60;44.30;;;;;;5039387;27;91908;-60
2023/01/14 09:43:38;;;;;;;2.23;0.60;;;20.50;44.20;;;;;;5039707;27;93018;-60
2023/01/14 09:46:07;;;;;;;0.80;0.80;;;20.50;44.30;;;;;;5039850;27;93980;-60
2023/01/14 09:48:35;;;;;;;0.83;0.50;;;20.50;44.30;;;;;;5039223;27;92043;-60
2023/01/14 09:51:22;;;;;;;0.50;0.50;;;20.50;44.40;;;;;;5039075;27;93100;-60
2023/01/14 09:54:03;;;;;;;1.03;0.60;;;20.40;44.30;;;;;;5043703;27;94148;-60
2023/01/14 09:56:34;;;;;;;0.73;0.53;;;20.40;44.40;;;;;;5057671;27;92864;-60
2023/01/14 09:59:06;;;;;;;1.00;0.60;;;20.40;44.40;;;;;;5052454;27;92963;-61
2023/01/14 10:01:36;;;;;;;0.63;0.63;;;20.30;44.40;;;;;;5041486;27;92099;-60
2023/01/14 10:04:09;;;;;;;0.73;0.60;;;20.30;44.40;;;;;;5038228;27;94239;-60
2023/01/14 10:06:38;;;;;;;0.50;0.50;;;20.30;44.50;;;;;;5054550;27;93779;-60
2023/01/14 10:09:11;;;;;;;0.57;0.57;;;20.30;44.50;;;;;;5050222;27;91943;-60
2023/01/14 10:11:42;;;;;;;0.70;0.50;;;20.30;44.60;;;;;;5064498;27;92087;-61
2023/01/14 10:14:12;;;;;;;0.93;0.80;;;20.20;44.50;;;;;;5054633;27;96539;-60
2023/01/14 10:16:41;;;;;;;0.93;0.80;;;20.20;44.60;;;;;;5069224;27;94006;-60
2023/01/14 10:19:13;;;;;;;0.80;0.40;;;20.20;44.60;;;;;;5066397;27;92172;-60
2023/01/14 10:21:43;;;;;;;1.03;0.70;;;20.20;44.60;;;;;;5065806;27;91979;-60
2023/01/14 10:24:13;;;;;;;1.47;0.53;;;20.20;44.70;;;;;;5064530;27;95166;-60
2023/01/14 10:26:41;;;;;;;1.10;0.57;;;20.10;44.60;;;;;;5065950;27;93907;-60
2023/01/14 10:29:13;;;;;;;1.53;0.70;;;20.10;44.60;;;;;;5066103;27;91791;-60
2023/01/14 10:31:42;;;;;;;0.43;0.40;;;20.10;44.70;;;;;;5066415;27;92060;-61
2023/01/14 10:34:10;;;;;;;0.73;0.60;;;20.10;44.70;;;;;;5082603;27;94041;-60
2023/01/14 10:36:38;;;;;;;0.73;0.40;;;20.10;44.70;;;;;;5085681;27;94029;-60
2023/01/14 10:39:07;;;;;;;0.40;0.40;;;20.00;44.70;;;;;;5047431;27;91941;-60
2023/01/14 10:41:49;;;;;;;0.70;0.70;;;20.00;44.70;;;;;;5056699;27;91457;-60
2023/01/14 10:44:21;;;;;;;2.57;0.60;;;20.00;44.70;;;;;;5050067;27;93029;-60
2023/01/14 10:46:50;;;;;;;0.87;0.60;;;20.00;44.80;;;;;;5064043;27;93975;-60
2023/01/14 10:49:19;;;;;;;0.60;0.60;;;20.10;44.80;;;;;;5063439;27;93324;-60
2023/01/14 10:51:50;;;;;;;0.30;0.30;;;20.10;44.80;;;;;;5062889;27;92101;-60
2023/01/14 10:54:19;;;;;;;0.53;0.53;;;20.20;45.50;;;;;;5062293;27;92905;-61
2023/01/14 10:56:50;;;;;;;0.60;0.53;;;20.30;44.80;;;;;;5062218;27;92384;-61
2023/01/14 10:59:32;;;;;;;0.50;0.40;;;20.40;44.80;;;;;;5063314;27;92119;-61
2023/01/14 11:02:00;;;;;;;1.00;0.53;;;20.60;44.70;;;;;;5063468;27;92510;-61
2023/01/14 11:04:47;;;;;;;0.80;0.60;;;20.90;44.70;;;;;;5064488;27;94179;-61
2023/01/14 11:07:21;;;;;;;2.63;0.60;;;21.10;44.50;;;;;;5065384;27;93911;-61
2023/01/14 11:09:49;;;;;;;0.47;0.43;;;21.40;44.50;;;;;;5065123;27;92045;-60
2023/01/14 11:12:29;;;;;;;1.50;0.60;;;21.60;44.30;;;;;;5065017;27;91978;-61
2023/01/14 11:14:58;;;;;;;0.27;0.27;;;21.80;44.30;;;;;;5063685;27;95571;-61
2023/01/14 11:17:28;;;;;;;1.50;0.73;;;22.00;44.20;;;;;;5064696;27;94721;-61
2023/01/14 11:20:20;;;;;;;0.40;0.40;;;22.20;44.10;;;;;;5062832;27;92089;-61
2023/01/14 11:22:58;;;;;;;0.47;0.47;;;22.40;44.10;;;;;;5061952;27;92051;-61
2023/01/14 11:25:26;;;;;;;0.60;0.60;;;22.50;43.90;;;;;;5060934;27;93161;-61
2023/01/14 11:27:56;;;;;;;0.40;0.40;;;22.60;43.90;;;;;;5061460;27;92918;-61
2023/01/14 11:30:24;;;;;;;0.67;0.50;;;22.80;43.90;;;;;;5062178;27;92163;-61
2023/01/14 11:32:52;;;;;;;0.40;0.40;;;22.90;43.80;;;;;;5062212;27;91217;-61
2023/01/14 11:35:23;;;;;;;2.80;0.80;;;23.00;43.80;;;;;;5061498;27;93178;-61
2023/01/14 11:37:53;;;;;;;0.87;0.60;;;23.10;43.70;;;;;;5061667;27;93848;-61
2023/01/14 11:40:22;;;;;;;0.87;0.37;;;23.20;43.70;;;;;;5061404;27;92975;-61
2023/01/14 11:42:51;;;;;;;1.70;0.70;;;23.30;43.60;;;;;;5061609;27;92044;-61
2023/01/14 11:45:22;;;;;;;0.90;0.90;;;23.50;43.70;;;;;;5061440;27;94287;-61
2023/01/14 11:47:51;;;;;;;1.70;0.63;;;23.50;43.50;;;;;;5061363;27;93901;-62
2023/01/14 11:50:21;;;;;;;0.47;0.40;;;23.60;43.40;;;;;;5061628;27;92065;-61
2023/01/14 11:52:58;;;;;;;1.17;0.40;;;23.70;43.40;;;;;;5061546;27;92101;-61
2023/01/14 11:55:27;;;;;;;0.40;0.40;;;23.80;43.40;;;;;;5060519;27;93144;-60
2023/01/14 11:58:03;;;;;;;1.33;0.40;;;23.90;43.40;;;;;;5061533;27;93194;-61
2023/01/14 12:00:42;;;;;;;0.87;0.50;;;24.00;43.30;;;;;;5061656;27;92453;-61
2023/01/14 12:03:15;;;;;;;0.43;0.40;;;24.10;43.30;;;;;;5061329;27;92169;-61
2023/01/14 12:05:43;;;;;;;0.53;0.37;;;24.10;43.20;;;;;;5059895;27;95502;-61
2023/01/14 12:08:15;;;;;;;0.57;0.57;;;24.20;43.20;;;;;;5061494;27;93756;-61
2023/01/14 12:10:44;;;;;;;0.60;0.60;;;24.20;43.20;;;;;;5060679;27;92018;-60
2023/01/14 12:18:48;;;;;;;0.60;0.57;;;24.10;43.20;;;;;;5060781;27;92801;-60
2023/01/14 12:21:17;;;;;;;0.87;0.57;;;24.10;43.20;;;;;;5061292;27;92060;-61
2023/01/14 12:23:47;;;;;;;0.60;0.57;;;24.10;43.30;;;;;;5061197;27;91302;-61
2023/01/14 12:26:19;;;;;;;1.43;0.60;;;24.10;43.90;;;;;;5060500;27;93282;-61
2023/01/14 12:28:50;;;;;;;0.53;0.20;;;24.20;43.20;;;;;;5061115;27;93053;-61
2023/01/14 12:31:22;;;;;;;1.20;0.70;;;24.30;43.20;;;;;;5059908;27;93029;-61
2023/01/14 12:33:52;;;;;;;0.50;0.50;;;24.40;43.10;;;;;;5061062;27;92002;-61
2023/01/14 12:36:21;;;;;;;0.80;0.40;;;24.40;43.00;;;;;;5060156;27;94131;-61
2023/01/14 12:47:28;;;;;;;0.87;0.60;;;24.90;42.90;;;;;;5060269;27;93143;-60
2023/01/14 12:49:56;;;;;;;0.83;0.60;;;24.90;42.80;;;;;;5060965;27;93935;-60
2023/01/14 12:52:25;;;;;;;1.03;0.40;;;24.80;42.80;;;;;;5061113;27;91991;-61
2023/01/14 12:54:53;;;;;;;0.50;0.50;;;24.80;42.90;;;;;;5058620;27;92554;-61
2023/01/14 12:57:22;;;;;;;0.30;0.30;;;24.70;42.80;;;;;;5057969;27;95062;-60
2023/01/14 12:59:53;;;;;;;0.20;0.20;;;24.60;42.90;;;;;;5060198;27;94950;-61
2023/01/14 13:02:23;;;;;;;0.33;0.33;;;24.60;42.90;;;;;;5060519;27;92480;-61
2023/01/14 13:04:56;;;;;;;0.20;0.20;;;24.50;42.90;;;;;;5060387;27;92196;-61
2023/01/14 13:07:26;;;;;;;0.30;0.30;;;24.40;43.00;;;;;;5059726;27;93282;-60
2023/01/14 13:09:55;;;;;;;0.30;0.30;;;24.30;43.00;;;;;;5059808;27;92070;-60
2023/01/14 13:12:27;;;;;;;0.20;0.20;;;24.20;43.00;;;;;;5060040;27;92056;-60
2023/01/14 13:14:56;;;;;;;0.20;0.20;;;24.10;43.00;;;;;;5059987;27;91869;-60
2023/01/14 13:17:32;;;;;;;0.43;0.33;;;24.10;43.20;;;;;;5059260;27;94108;-60
2023/01/14 13:20:03;;;;;;;0.20;0.20;;;24.00;43.20;;;;;;5059816;27;92762;-60
2023/01/14 13:22:43;;;;;;;2.07;0.50;;;23.90;43.20;;;;;;5059942;27;92927;-59
2023/01/14 13:25:20;;;;;;;0.47;0.43;;;23.80;43.30;;;;;;5059828;27;92100;-60
2023/01/14 13:27:48;;;;;;;0.57;0.50;;;23.70;43.30;;;;;;5059607;27;93063;-60
2023/01/14 13:30:45;;;;;;;3.10;0.67;;;23.70;43.40;;;;;;5059841;27;94016;-60
2023/01/14 13:33:21;;;;;;;0.83;0.37;;;23.60;43.40;;;;;;5059998;27;91931;-60
2023/01/14 13:36:27;;;;;;;0.30;0.30;;;23.50;43.40;;;;;;5059567;27;91964;-59
2023/01/14 13:39:01;;;;;;;0.20;0.20;;;23.50;43.50;;;;;;5058597;27;94145;-60
2023/01/14 13:41:39;;;;;;;0.30;0.30;;;23.40;43.50;;;;;;5059073;27;92787;-60
2023/01/14 13:44:16;;;;;;;0.30;0.30;;;23.30;43.50;;;;;;5058959;27;92086;-60